createdAt,value
2019-01-26T00:00:32.261Z,29.25
2019-01-26T00:01:10.614Z,29.20
2019-01-26T00:01:47.993Z,28.67
2019-01-26T00:02:25.523Z,28.38
2019-01-26T00:03:03.295Z,29.05
2019-01-26T00:03:40.982Z,29.20
2019-01-26T00:04:18.767Z,30.77
2019-01-26T00:04:56.783Z,30.62
2019-01-26T00:05:34.864Z,31.23
2019-01-26T00:06:13.128Z,28.92
2019-01-26T00:06:51.222Z,29.70
2019-01-26T00:07:29.156Z,31.10
2019-01-26T00:08:06.322Z,31.07
2019-01-26T00:08:43.889Z,29.75
2019-01-26T00:09:22.101Z,29.00
2019-01-26T00:09:59.451Z,30.27
2019-01-26T00:10:37.387Z,29.30
2019-01-26T00:11:14.932Z,29.63
2019-01-26T00:11:52.303Z,30.05
2019-01-26T00:12:30.191Z,30.82
2019-01-26T00:13:07.767Z,30.80
2019-01-26T00:13:45.143Z,30.48
2019-01-26T00:14:22.927Z,31.37
2019-01-26T00:15:00.236Z,31.60
2019-01-26T00:15:37.867Z,30.35
2019-01-26T00:16:20.993Z,30.23
2019-01-26T00:16:54.315Z,32.35
2019-01-26T00:17:31.764Z,29.27
2019-01-26T00:18:09.827Z,30.12
2019-01-26T00:18:47.439Z,30.40
2019-01-26T00:19:25.425Z,31.65
2019-01-26T00:20:03.163Z,30.12
2019-01-26T00:20:41.100Z,30.35
2019-01-26T00:21:18.859Z,29.95
2019-01-26T00:21:56.702Z,31.40
2019-01-26T00:22:33.981Z,30.60
2019-01-26T00:23:11.119Z,30.45
2019-01-26T00:23:49.171Z,30.25
2019-01-26T00:24:26.999Z,30.50
2019-01-26T00:25:04.777Z,29.32
2019-01-26T00:25:42.361Z,31.45
2019-01-26T00:26:20.063Z,32.85
2019-01-26T00:26:58.107Z,29.20
2019-01-26T00:27:35.513Z,30.02
2019-01-26T00:28:13.031Z,29.48
2019-01-26T00:28:50.577Z,30.60
2019-01-26T00:29:28.212Z,30.62
2019-01-26T00:30:07.151Z,29.85
2019-01-26T00:30:44.712Z,32.70
2019-01-26T00:31:21.474Z,31.77
2019-01-26T00:31:59.632Z,29.95
2019-01-26T00:32:37.557Z,29.45
2019-01-26T00:33:15.212Z,29.65
2019-01-26T00:33:53.076Z,31.12
2019-01-26T00:34:30.803Z,32.33
2019-01-26T00:35:08.459Z,31.17
2019-01-26T00:35:46.243Z,31.95
2019-01-26T00:36:23.638Z,32.45
2019-01-26T00:37:01.128Z,31.33
2019-01-26T00:37:39.295Z,33.38
2019-01-26T00:38:17.100Z,31.05
2019-01-26T00:38:54.893Z,32.35
2019-01-26T00:39:32.983Z,32.23
2019-01-26T00:40:11.240Z,31.70
2019-01-26T00:40:49.145Z,30.97
2019-01-26T00:41:26.821Z,31.07
2019-01-26T00:42:04.833Z,34.27
2019-01-26T00:42:42.811Z,31.12
2019-01-26T00:43:20.563Z,29.82
2019-01-26T00:43:58.182Z,32.95
2019-01-26T00:44:35.999Z,32.78
2019-01-26T00:45:14.271Z,32.23
2019-01-26T00:45:51.967Z,30.37
2019-01-26T00:46:29.941Z,32.33
2019-01-26T00:47:07.129Z,31.02
2019-01-26T00:47:44.873Z,32.17
2019-01-26T00:48:22.353Z,31.57
2019-01-26T00:49:00.232Z,33.00
2019-01-26T00:49:37.965Z,31.55
2019-01-26T00:50:15.627Z,31.95
2019-01-26T00:50:53.423Z,32.25
2019-01-26T00:51:31.323Z,31.75
2019-01-26T00:52:08.764Z,32.53
2019-01-26T00:52:46.800Z,31.60
2019-01-26T00:53:24.967Z,32.00
2019-01-26T00:54:02.112Z,32.58
2019-01-26T00:54:39.079Z,31.40
2019-01-26T00:55:16.531Z,31.50
2019-01-26T00:55:53.675Z,33.83
2019-01-26T00:56:31.211Z,32.00
2019-01-26T00:57:08.901Z,30.60
2019-01-26T00:57:46.265Z,32.48
2019-01-26T00:58:23.842Z,31.93
2019-01-26T00:59:01.819Z,31.50
2019-01-26T00:59:39.437Z,32.23
2019-01-26T01:00:17.746Z,29.87
2019-01-26T01:00:55.710Z,33.28
2019-01-26T01:01:33.615Z,31.40
2019-01-26T01:02:11.076Z,31.75
2019-01-26T01:02:48.579Z,31.35
2019-01-26T01:03:25.890Z,30.48
2019-01-26T01:04:22.458Z,32.48
2019-01-26T01:05:00.419Z,32.60
2019-01-26T01:05:37.563Z,30.30
2019-01-26T01:06:15.337Z,30.77
2019-01-26T01:06:52.411Z,31.48
2019-01-26T01:07:30.310Z,31.37
2019-01-26T01:08:07.939Z,30.20
2019-01-26T01:08:45.567Z,31.27
2019-01-26T01:09:23.038Z,31.17
2019-01-26T01:10:00.584Z,31.33
2019-01-26T01:10:38.307Z,32.25
2019-01-26T01:11:15.749Z,31.85
2019-01-26T01:11:52.858Z,31.35
2019-01-26T01:12:30.659Z,32.60
2019-01-26T01:13:08.209Z,31.62
2019-01-26T01:13:45.805Z,30.50
2019-01-26T01:14:23.481Z,31.75
2019-01-26T01:15:00.926Z,30.75
2019-01-26T01:15:38.814Z,32.17
2019-01-26T01:16:16.879Z,32.38
2019-01-26T01:16:54.929Z,30.70
2019-01-26T01:17:32.089Z,33.60
2019-01-26T01:18:09.973Z,32.10
2019-01-26T01:18:47.765Z,32.40
2019-01-26T01:19:25.563Z,32.60
2019-01-26T01:20:03.515Z,32.70
2019-01-26T01:20:40.995Z,31.42
2019-01-26T01:21:18.373Z,31.75
2019-01-26T01:21:56.689Z,33.15
2019-01-26T01:22:34.098Z,30.68
2019-01-26T01:23:11.778Z,30.57
2019-01-26T01:23:49.429Z,32.30
2019-01-26T01:24:27.146Z,32.23
2019-01-26T01:25:04.295Z,30.55
2019-01-26T01:25:42.049Z,31.60
2019-01-26T01:26:19.445Z,31.05
2019-01-26T01:26:56.946Z,29.85
2019-01-26T01:27:34.695Z,32.55
2019-01-26T01:28:12.528Z,31.10
2019-01-26T01:28:50.517Z,30.97
2019-01-26T01:29:28.244Z,31.97
2019-01-26T01:30:07.494Z,31.30
2019-01-26T01:30:44.871Z,32.38
2019-01-26T01:31:22.197Z,31.07
2019-01-26T01:31:59.663Z,32.08
2019-01-26T01:32:37.170Z,31.45
2019-01-26T01:33:14.511Z,31.00
2019-01-26T01:33:52.624Z,32.48
2019-01-26T01:34:30.387Z,30.72
2019-01-26T01:35:07.907Z,30.52
2019-01-26T01:35:45.855Z,31.68
2019-01-26T01:36:23.643Z,33.92
2019-01-26T01:37:00.891Z,32.80
2019-01-26T01:37:38.585Z,32.88
2019-01-26T01:38:16.353Z,34.30
2019-01-26T01:38:53.463Z,35.13
2019-01-26T01:39:31.285Z,33.18
2019-01-26T01:40:09.722Z,33.45
2019-01-26T01:40:47.598Z,33.23
2019-01-26T01:41:25.530Z,33.85
2019-01-26T01:42:03.417Z,32.05
2019-01-26T01:42:41.398Z,32.03
2019-01-26T01:43:18.523Z,33.80
2019-01-26T01:43:55.947Z,34.63
2019-01-26T01:44:33.789Z,32.42
2019-01-26T01:45:13.315Z,32.45
2019-01-26T01:45:50.793Z,31.70
2019-01-26T01:46:28.523Z,33.95
2019-01-26T01:47:06.253Z,31.55
2019-01-26T01:47:44.038Z,32.70
2019-01-26T01:48:21.275Z,32.42
2019-01-26T01:48:58.067Z,32.80
2019-01-26T01:49:35.061Z,32.70
2019-01-26T01:50:12.971Z,33.10
2019-01-26T01:50:50.485Z,35.58
2019-01-26T01:51:28.444Z,33.65
2019-01-26T01:52:06.039Z,32.30
2019-01-26T01:52:43.543Z,32.28
2019-01-26T01:53:21.386Z,33.67
2019-01-26T01:53:58.799Z,32.63
2019-01-26T01:54:36.534Z,31.55
2019-01-26T01:55:14.033Z,33.85
2019-01-26T01:55:51.827Z,32.03
2019-01-26T01:56:29.510Z,32.80
2019-01-26T01:57:07.265Z,32.83
2019-01-26T01:57:44.845Z,32.65
2019-01-26T01:58:22.489Z,34.27
2019-01-26T01:58:59.903Z,31.82
2019-01-26T01:59:37.823Z,34.30
2019-01-26T02:00:20.619Z,33.92
2019-01-26T02:00:58.171Z,32.33
2019-01-26T02:01:35.759Z,31.33
2019-01-26T02:02:13.339Z,32.78
2019-01-26T02:02:50.827Z,34.35
2019-01-26T02:03:28.829Z,32.45
2019-01-26T02:04:06.494Z,30.75
2019-01-26T02:04:44.259Z,32.38
2019-01-26T02:05:22.063Z,32.60
2019-01-26T02:05:59.681Z,31.20
2019-01-26T02:06:37.457Z,32.30
2019-01-26T02:07:15.361Z,33.20
2019-01-26T02:07:52.591Z,32.70
2019-01-26T02:08:30.201Z,31.82
2019-01-26T02:09:09.727Z,34.08
2019-01-26T02:09:47.826Z,32.67
2019-01-26T02:10:26.424Z,31.52
2019-01-26T02:11:04.077Z,31.52
2019-01-26T02:11:41.715Z,31.00
2019-01-26T02:12:19.551Z,33.73
2019-01-26T02:12:57.389Z,32.33
2019-01-26T02:13:35.295Z,31.30
2019-01-26T02:14:13.035Z,31.82
2019-01-26T02:14:51.084Z,32.98
2019-01-26T02:15:29.043Z,31.70
2019-01-26T02:16:06.831Z,31.90
2019-01-26T02:16:50.066Z,31.30
2019-01-26T02:17:24.246Z,32.30
2019-01-26T02:18:02.090Z,32.65
2019-01-26T02:18:39.663Z,31.45
2019-01-26T02:19:17.675Z,32.67
2019-01-26T02:19:55.660Z,31.23
2019-01-26T02:20:33.535Z,33.42
2019-01-26T02:21:11.637Z,32.90
2019-01-26T02:21:49.577Z,33.05
2019-01-26T02:22:27.426Z,32.55
2019-01-26T02:23:05.215Z,33.38
2019-01-26T02:23:42.999Z,33.60
2019-01-26T02:24:20.999Z,32.78
2019-01-26T02:24:59.007Z,34.75
2019-01-26T02:25:36.661Z,32.33
2019-01-26T02:26:14.328Z,31.40
2019-01-26T02:26:52.012Z,32.42
2019-01-26T02:27:29.981Z,33.65
2019-01-26T02:28:07.991Z,31.77
2019-01-26T02:28:45.330Z,32.35
2019-01-26T02:29:22.636Z,32.83
2019-01-26T02:30:00.036Z,34.35
2019-01-26T02:30:37.793Z,31.73
2019-01-26T02:31:15.449Z,32.03
2019-01-26T02:31:53.185Z,32.17
2019-01-26T02:32:30.949Z,32.00
2019-01-26T02:33:08.557Z,33.58
2019-01-26T02:33:46.350Z,32.70
2019-01-26T02:34:24.109Z,33.38
2019-01-26T02:35:02.120Z,31.60
2019-01-26T02:35:39.693Z,31.82
2019-01-26T02:36:17.461Z,31.65
2019-01-26T02:36:55.244Z,30.10
2019-01-26T02:37:32.693Z,31.85
2019-01-26T02:38:09.720Z,31.77
2019-01-26T02:38:47.372Z,32.93
2019-01-26T02:39:24.960Z,33.10
2019-01-26T02:40:02.670Z,32.03
2019-01-26T02:40:40.734Z,29.85
2019-01-26T02:41:18.216Z,31.82
2019-01-26T02:41:56.080Z,33.42
2019-01-26T02:42:33.472Z,32.35
2019-01-26T02:43:10.987Z,32.48
2019-01-26T02:43:48.065Z,33.10
2019-01-26T02:44:25.499Z,31.82
2019-01-26T02:45:03.592Z,31.25
2019-01-26T02:45:41.212Z,31.07
2019-01-26T02:46:18.282Z,34.67
2019-01-26T02:46:58.117Z,30.55
2019-01-26T02:47:35.742Z,30.95
2019-01-26T02:48:13.547Z,32.90
2019-01-26T02:48:50.924Z,30.88
2019-01-26T02:49:28.033Z,32.25
2019-01-26T02:50:07.620Z,32.03
2019-01-26T02:50:44.728Z,30.62
2019-01-26T02:51:22.591Z,31.40
2019-01-26T02:52:00.055Z,31.55
2019-01-26T02:52:37.441Z,32.67
2019-01-26T02:53:14.495Z,31.80
2019-01-26T02:53:51.154Z,32.23
2019-01-26T02:54:32.390Z,31.02
2019-01-26T02:55:10.555Z,31.65
2019-01-26T02:55:53.548Z,30.57
2019-01-26T02:56:31.552Z,28.62
2019-01-26T02:57:09.540Z,30.55
2019-01-26T02:57:47.296Z,31.70
2019-01-26T02:58:25.315Z,32.67
2019-01-26T02:59:03.205Z,32.15
2019-01-26T02:59:40.860Z,32.10
2019-01-26T03:00:23.463Z,31.12
2019-01-26T03:01:01.049Z,34.35
2019-01-26T03:01:38.113Z,32.63
2019-01-26T03:02:15.969Z,32.73
2019-01-26T03:02:53.884Z,32.83
2019-01-26T03:03:31.798Z,33.15
2019-01-26T03:04:09.940Z,31.17
2019-01-26T03:04:47.882Z,32.78
2019-01-26T03:05:25.788Z,31.33
2019-01-26T03:06:03.454Z,32.15
2019-01-26T03:06:41.544Z,31.33
2019-01-26T03:07:19.313Z,33.23
2019-01-26T03:07:57.599Z,31.12
2019-01-26T03:08:34.930Z,31.77
2019-01-26T03:09:12.749Z,32.50
2019-01-26T03:09:50.028Z,32.40
2019-01-26T03:10:27.881Z,32.05
2019-01-26T03:11:05.941Z,30.95
2019-01-26T03:11:43.828Z,32.70
2019-01-26T03:12:21.185Z,34.10
2019-01-26T03:12:58.868Z,30.65
2019-01-26T03:13:36.553Z,32.33
2019-01-26T03:14:13.929Z,31.93
2019-01-26T03:14:51.569Z,34.35
2019-01-26T03:15:29.128Z,30.48
2019-01-26T03:16:07.012Z,32.45
2019-01-26T03:16:44.254Z,32.20
2019-01-26T03:17:22.044Z,31.70
2019-01-26T03:18:00.358Z,29.02
2019-01-26T03:18:38.070Z,31.80
2019-01-26T03:19:15.615Z,31.33
2019-01-26T03:19:53.388Z,32.88
2019-01-26T03:20:30.882Z,30.43
2019-01-26T03:21:08.348Z,32.53
2019-01-26T03:21:45.718Z,32.70
2019-01-26T03:22:23.486Z,32.35
2019-01-26T03:23:01.147Z,33.08
2019-01-26T03:23:38.880Z,32.75
2019-01-26T03:24:16.186Z,32.10
2019-01-26T03:24:54.240Z,31.70
2019-01-26T03:25:32.155Z,32.65
2019-01-26T03:26:09.608Z,33.30
2019-01-26T03:26:46.980Z,30.23
2019-01-26T03:27:24.052Z,33.02
2019-01-26T03:28:01.908Z,31.35
2019-01-26T03:28:39.684Z,31.77
2019-01-26T03:29:17.000Z,33.23
2019-01-26T03:29:54.928Z,31.27
2019-01-26T03:30:33.005Z,32.88
2019-01-26T03:31:10.470Z,32.67
2019-01-26T03:31:48.174Z,31.60
2019-01-26T03:32:25.621Z,30.23
2019-01-26T03:33:03.233Z,31.17
2019-01-26T03:33:40.984Z,31.27
2019-01-26T03:34:18.334Z,32.33
2019-01-26T03:34:55.844Z,33.95
2019-01-26T03:35:33.732Z,32.55
2019-01-26T03:36:11.452Z,33.15
2019-01-26T03:36:49.117Z,31.82
2019-01-26T03:37:26.613Z,31.50
2019-01-26T03:38:04.297Z,33.08
2019-01-26T03:38:41.640Z,31.40
2019-01-26T03:39:19.785Z,32.88
2019-01-26T03:39:57.224Z,31.65
2019-01-26T03:40:34.804Z,30.80
2019-01-26T03:41:12.491Z,31.82
2019-01-26T03:41:49.570Z,31.05
2019-01-26T03:42:27.253Z,32.50
2019-01-26T03:43:05.441Z,30.35
2019-01-26T03:43:43.232Z,31.70
2019-01-26T03:44:21.137Z,32.28
2019-01-26T03:44:58.858Z,31.00
2019-01-26T03:45:36.698Z,32.20
2019-01-26T03:46:14.081Z,31.37
2019-01-26T03:46:51.782Z,30.77
2019-01-26T03:47:29.460Z,31.37
2019-01-26T03:48:07.186Z,29.82
2019-01-26T03:48:45.207Z,31.85
2019-01-26T03:49:22.623Z,31.05
2019-01-26T03:50:00.587Z,31.87
2019-01-26T03:50:37.970Z,30.68
2019-01-26T03:51:16.039Z,33.05
2019-01-26T03:51:54.019Z,34.25
2019-01-26T03:52:31.630Z,31.12
2019-01-26T03:53:09.392Z,30.80
2019-01-26T03:53:47.181Z,32.23
2019-01-26T03:54:24.076Z,29.45
2019-01-26T03:55:02.051Z,32.60
2019-01-26T03:55:39.807Z,29.95
2019-01-26T03:56:17.918Z,32.48
2019-01-26T03:56:55.484Z,30.68
2019-01-26T03:57:33.111Z,30.77
2019-01-26T03:58:10.862Z,29.77
2019-01-26T03:58:49.097Z,30.60
2019-01-26T03:59:27.055Z,31.70
2019-01-26T04:00:05.441Z,31.00
2019-01-26T04:00:43.444Z,33.02
2019-01-26T04:01:21.463Z,30.30
2019-01-26T04:01:59.735Z,30.17
2019-01-26T04:02:37.131Z,31.25
2019-01-26T04:03:14.924Z,29.90
2019-01-26T04:03:52.997Z,30.55
2019-01-26T04:04:30.939Z,29.72
2019-01-26T04:05:09.752Z,30.72
2019-01-26T04:05:47.191Z,29.92
2019-01-26T04:06:25.087Z,31.27
2019-01-26T04:07:02.825Z,30.17
2019-01-26T04:07:40.725Z,31.65
2019-01-26T04:08:18.301Z,31.93
2019-01-26T04:08:56.329Z,31.77
2019-01-26T04:09:34.075Z,30.85
2019-01-26T04:10:12.721Z,34.00
2019-01-26T04:10:50.469Z,31.77
2019-01-26T04:11:27.954Z,30.82
2019-01-26T04:12:05.968Z,31.90
2019-01-26T04:12:43.767Z,33.88
2019-01-26T04:13:21.517Z,32.80
2019-01-26T04:13:58.891Z,32.42
2019-01-26T04:14:36.636Z,32.03
2019-01-26T04:15:15.323Z,30.27
2019-01-26T04:15:52.459Z,29.35
2019-01-26T04:16:29.941Z,32.45
2019-01-26T04:17:07.101Z,32.75
2019-01-26T04:17:44.590Z,29.30
2019-01-26T04:18:22.062Z,32.50
2019-01-26T04:18:59.774Z,28.77
2019-01-26T04:19:37.457Z,31.10
2019-01-26T04:20:17.683Z,30.15
2019-01-26T04:20:55.095Z,30.68
2019-01-26T04:21:32.761Z,30.57
2019-01-26T04:22:10.406Z,30.20
2019-01-26T04:22:47.975Z,30.30
2019-01-26T04:23:25.479Z,30.82
2019-01-26T04:24:02.974Z,31.48
2019-01-26T04:24:41.069Z,31.35
2019-01-26T04:25:18.329Z,31.90
2019-01-26T04:25:56.189Z,31.65
2019-01-26T04:26:34.215Z,31.48
2019-01-26T04:27:16.031Z,30.12
2019-01-26T04:27:53.569Z,31.30
2019-01-26T04:28:31.246Z,29.98
2019-01-26T04:29:08.980Z,32.00
2019-01-26T04:29:46.769Z,29.15
2019-01-26T04:30:29.715Z,28.92
2019-01-26T04:31:07.844Z,30.95
2019-01-26T04:31:45.903Z,31.75
2019-01-26T04:32:22.975Z,29.92
2019-01-26T04:33:00.504Z,32.63
2019-01-26T04:33:38.439Z,32.53
2019-01-26T04:34:16.037Z,30.75
2019-01-26T04:34:53.973Z,30.50
2019-01-26T04:35:31.443Z,30.17
2019-01-26T04:36:08.652Z,30.10
2019-01-26T04:36:46.358Z,32.48
2019-01-26T04:37:24.088Z,31.73
2019-01-26T04:38:01.800Z,32.05
2019-01-26T04:38:39.399Z,30.90
2019-01-26T04:39:16.775Z,31.37
2019-01-26T04:39:54.597Z,30.37
2019-01-26T04:40:32.704Z,30.00
2019-01-26T04:41:10.445Z,30.85
2019-01-26T04:41:47.947Z,30.48
2019-01-26T04:42:25.649Z,31.70
2019-01-26T04:43:03.552Z,31.10
2019-01-26T04:43:40.770Z,29.30
2019-01-26T04:44:18.240Z,31.20
2019-01-26T04:44:55.928Z,29.40
2019-01-26T04:45:33.399Z,30.25
2019-01-26T04:46:11.083Z,30.55
2019-01-26T04:46:48.616Z,29.90
2019-01-26T04:47:31.074Z,31.05
2019-01-26T04:48:05.741Z,29.20
2019-01-26T04:48:43.376Z,27.90
2019-01-26T04:49:21.157Z,30.45
2019-01-26T04:49:58.653Z,29.32
2019-01-26T04:50:36.405Z,30.45
2019-01-26T04:51:14.144Z,29.95
2019-01-26T04:51:52.204Z,30.43
2019-01-26T04:52:29.558Z,30.62
2019-01-26T04:53:07.070Z,30.97
2019-01-26T04:53:44.724Z,29.45
2019-01-26T04:54:22.315Z,28.52
2019-01-26T04:55:00.224Z,29.00
2019-01-26T04:55:38.084Z,30.45
2019-01-26T04:56:15.769Z,31.95
2019-01-26T04:56:53.285Z,28.60
2019-01-26T04:57:31.195Z,30.45
2019-01-26T04:58:09.202Z,29.40
2019-01-26T04:58:46.632Z,31.95
2019-01-26T04:59:24.302Z,30.32
2019-01-26T05:00:02.176Z,28.25
2019-01-26T05:00:39.936Z,29.25
2019-01-26T05:01:17.287Z,31.33
2019-01-26T05:01:55.152Z,28.83
2019-01-26T05:02:33.008Z,29.57
2019-01-26T05:03:10.915Z,29.80
2019-01-26T05:03:48.784Z,29.57
2019-01-26T05:04:26.892Z,29.48
2019-01-26T05:05:05.088Z,28.98
2019-01-26T05:05:42.859Z,29.15
2019-01-26T05:06:20.908Z,29.77
2019-01-26T05:06:58.747Z,28.60
2019-01-26T05:07:36.422Z,29.80
2019-01-26T05:08:13.901Z,31.23
2019-01-26T05:08:51.637Z,30.25
2019-01-26T05:09:29.407Z,28.83
2019-01-26T05:10:09.307Z,29.92
2019-01-26T05:10:47.046Z,28.75
2019-01-26T05:11:25.019Z,27.00
2019-01-26T05:12:02.843Z,28.83
2019-01-26T05:12:40.197Z,28.38
2019-01-26T05:13:17.935Z,29.82
2019-01-26T05:13:55.566Z,31.15
2019-01-26T05:14:33.454Z,27.42
2019-01-26T05:15:12.083Z,28.85
2019-01-26T05:15:49.101Z,27.25
2019-01-26T05:16:27.004Z,28.12
2019-01-26T05:17:04.654Z,29.80
2019-01-26T05:17:42.224Z,30.23
2019-01-26T05:18:19.939Z,30.25
2019-01-26T05:18:57.706Z,31.40
2019-01-26T05:19:35.481Z,27.45
2019-01-26T05:20:17.842Z,29.55
2019-01-26T05:20:55.662Z,27.73
2019-01-26T05:21:33.395Z,29.05
2019-01-26T05:22:10.835Z,29.57
2019-01-26T05:22:49.031Z,28.47
2019-01-26T05:23:26.850Z,28.73
2019-01-26T05:24:05.950Z,29.80
2019-01-26T05:24:43.447Z,29.45
2019-01-26T05:25:20.882Z,29.02
2019-01-26T05:25:58.258Z,27.05
2019-01-26T05:26:36.176Z,29.32
2019-01-26T05:27:13.834Z,29.55
2019-01-26T05:27:51.437Z,28.00
2019-01-26T05:28:28.884Z,27.00
2019-01-26T05:29:06.577Z,28.92
2019-01-26T05:29:44.288Z,28.95
2019-01-26T05:30:26.583Z,28.85
2019-01-26T05:31:04.045Z,28.25
2019-01-26T05:31:41.706Z,29.18
2019-01-26T05:32:19.193Z,29.92
2019-01-26T05:32:56.780Z,27.50
2019-01-26T05:33:34.275Z,28.77
2019-01-26T05:34:11.961Z,29.67
2019-01-26T05:34:49.176Z,27.20
2019-01-26T05:35:26.942Z,28.83
2019-01-26T05:36:04.992Z,29.10
2019-01-26T05:36:42.353Z,28.85
2019-01-26T05:37:20.046Z,31.23
2019-01-26T05:37:57.615Z,29.30
2019-01-26T05:38:35.219Z,28.55
2019-01-26T05:39:12.984Z,28.50
2019-01-26T05:39:50.935Z,29.18
2019-01-26T05:40:28.151Z,27.50
2019-01-26T05:41:05.633Z,30.10
2019-01-26T05:41:43.338Z,29.32
2019-01-26T05:42:21.212Z,28.00
2019-01-26T05:42:59.293Z,29.00
2019-01-26T05:43:37.012Z,29.90
2019-01-26T05:44:15.009Z,28.30
2019-01-26T05:44:52.281Z,30.88
2019-01-26T05:45:30.357Z,28.25
2019-01-26T05:46:08.351Z,30.62
2019-01-26T05:46:45.906Z,27.58
2019-01-26T05:47:23.933Z,28.07
2019-01-26T05:48:01.687Z,28.80
2019-01-26T05:48:39.404Z,28.47
2019-01-26T05:49:17.155Z,28.02
2019-01-26T05:49:55.267Z,27.40
2019-01-26T05:50:32.824Z,29.45
2019-01-26T05:51:09.798Z,29.10
2019-01-26T05:51:47.735Z,29.15
2019-01-26T05:52:25.672Z,27.45
2019-01-26T05:53:03.362Z,28.25
2019-01-26T05:53:41.515Z,27.85
2019-01-26T05:54:19.225Z,29.70
2019-01-26T05:54:56.322Z,27.98
2019-01-26T05:55:34.362Z,29.45
2019-01-26T05:56:12.422Z,28.83
2019-01-26T05:56:50.298Z,29.37
2019-01-26T05:57:27.981Z,28.47
2019-01-26T05:58:05.838Z,27.42
2019-01-26T05:58:43.685Z,27.45
2019-01-26T05:59:21.325Z,27.80
2019-01-26T05:59:59.341Z,27.82
2019-01-26T06:00:37.747Z,27.62
2019-01-26T06:01:15.750Z,28.42
2019-01-26T06:01:53.119Z,28.20
2019-01-26T06:02:30.556Z,28.98
2019-01-26T06:03:07.690Z,28.92
2019-01-26T06:03:45.753Z,28.40
2019-01-26T06:04:23.134Z,28.95
2019-01-26T06:05:01.205Z,28.77
2019-01-26T06:05:38.980Z,28.45
2019-01-26T06:06:16.653Z,29.55
2019-01-26T06:06:54.327Z,27.95
2019-01-26T06:07:31.647Z,27.70
2019-01-26T06:08:09.142Z,29.57
2019-01-26T06:08:46.166Z,29.25
2019-01-26T06:09:23.944Z,28.50
2019-01-26T06:10:01.636Z,28.57
2019-01-26T06:10:39.332Z,28.25
2019-01-26T06:11:16.832Z,27.02
2019-01-26T06:11:54.400Z,28.38
2019-01-26T06:12:31.448Z,29.25
2019-01-26T06:13:09.228Z,30.77
2019-01-26T06:13:46.219Z,28.20
2019-01-26T06:14:23.840Z,26.65
2019-01-26T06:15:01.034Z,29.20
2019-01-26T06:15:38.946Z,30.43
2019-01-26T06:16:16.670Z,28.07
2019-01-26T06:16:54.444Z,27.77
2019-01-26T06:17:32.191Z,29.52
2019-01-26T06:18:09.618Z,28.57
2019-01-26T06:18:47.087Z,27.75
2019-01-26T06:19:24.786Z,28.30
2019-01-26T06:20:02.449Z,26.30
2019-01-26T06:20:40.097Z,26.50
2019-01-26T06:21:17.824Z,28.17
2019-01-26T06:21:55.472Z,27.25
2019-01-26T06:22:32.740Z,26.20
2019-01-26T06:23:10.429Z,28.45
2019-01-26T06:23:48.312Z,26.15
2019-01-26T06:24:26.014Z,27.45
2019-01-26T06:25:04.165Z,28.07
2019-01-26T06:25:41.898Z,26.15
2019-01-26T06:26:19.970Z,26.95
2019-01-26T06:26:57.348Z,26.93
2019-01-26T06:27:35.128Z,27.90
2019-01-26T06:28:12.964Z,28.27
2019-01-26T06:28:50.612Z,26.95
2019-01-26T06:29:28.388Z,25.95
2019-01-26T06:30:08.012Z,27.13
2019-01-26T06:30:45.700Z,28.05
2019-01-26T06:31:23.294Z,26.37
2019-01-26T06:32:01.065Z,29.55
2019-01-26T06:32:38.916Z,27.37
2019-01-26T06:33:16.983Z,27.93
2019-01-26T06:33:55.604Z,28.00
2019-01-26T06:34:33.256Z,25.97
2019-01-26T06:35:11.284Z,26.80
2019-01-26T06:35:51.500Z,28.32
2019-01-26T06:36:29.186Z,28.65
2019-01-26T06:37:06.668Z,26.02
2019-01-26T06:37:44.299Z,26.62
2019-01-26T06:38:22.076Z,27.55
2019-01-26T06:39:02.206Z,28.32
2019-01-26T06:39:40.164Z,28.05
2019-01-26T06:40:18.872Z,26.93
2019-01-26T06:40:56.960Z,28.05
2019-01-26T06:41:34.764Z,27.27
2019-01-26T06:42:12.192Z,26.68
2019-01-26T06:42:50.152Z,25.20
2019-01-26T06:43:27.572Z,26.90
2019-01-26T06:44:05.817Z,28.50
2019-01-26T06:44:46.097Z,26.85
2019-01-26T06:45:24.536Z,25.88
2019-01-26T06:46:01.926Z,27.60
2019-01-26T06:46:39.880Z,28.62
2019-01-26T06:47:17.720Z,28.17
2019-01-26T06:48:01.881Z,27.30
2019-01-26T06:48:34.774Z,27.70
2019-01-26T06:49:12.901Z,26.48
2019-01-26T06:49:50.624Z,27.73
2019-01-26T06:50:28.938Z,28.40
2019-01-26T06:51:06.771Z,29.20
2019-01-26T06:51:56.910Z,26.77
2019-01-26T06:52:35.404Z,27.58
2019-01-26T06:53:13.198Z,27.55
2019-01-26T06:53:50.696Z,28.10
2019-01-26T06:54:28.308Z,29.02
2019-01-26T06:55:07.172Z,28.17
2019-01-26T06:55:44.463Z,28.25
2019-01-26T06:56:21.926Z,28.60
2019-01-26T06:56:59.961Z,27.60
2019-01-26T06:57:37.906Z,28.27
2019-01-26T06:58:15.250Z,27.45
2019-01-26T06:58:52.405Z,28.35
2019-01-26T06:59:30.059Z,25.30
2019-01-26T07:00:13.363Z,29.63
2019-01-26T07:00:51.040Z,26.77
2019-01-26T07:01:29.165Z,27.77
2019-01-26T07:02:07.093Z,28.83
2019-01-26T07:02:45.252Z,30.32
2019-01-26T07:03:40.330Z,26.70
2019-01-26T07:04:28.449Z,27.13
2019-01-26T07:05:26.287Z,26.25
2019-01-26T07:06:15.130Z,27.87
2019-01-26T07:07:27.125Z,26.52
2019-01-26T07:08:04.725Z,25.85
2019-01-26T07:08:42.110Z,25.57
2019-01-26T07:09:19.494Z,27.52
2019-01-26T07:09:58.698Z,27.05
2019-01-26T07:10:36.168Z,27.65
2019-01-26T07:11:12.836Z,29.35
2019-01-26T07:11:50.563Z,27.52
2019-01-26T07:12:28.505Z,28.23
2019-01-26T07:13:06.271Z,28.40
2019-01-26T07:13:44.055Z,28.05
2019-01-26T07:14:21.540Z,27.95
2019-01-26T07:14:58.942Z,28.95
2019-01-26T07:15:37.124Z,28.00
2019-01-26T07:16:16.596Z,28.87
2019-01-26T07:16:54.552Z,28.47
2019-01-26T07:17:32.217Z,28.17
2019-01-26T07:18:10.196Z,31.00
2019-01-26T07:18:48.594Z,32.25
2019-01-26T07:19:26.605Z,28.38
2019-01-26T07:20:05.360Z,31.77
2019-01-26T07:20:42.586Z,31.20
2019-01-26T07:21:20.249Z,29.45
2019-01-26T07:21:58.243Z,28.80
2019-01-26T07:22:36.361Z,29.77
2019-01-26T07:23:14.102Z,29.63
2019-01-26T07:23:51.776Z,29.23
2019-01-26T07:24:29.239Z,29.60
2019-01-26T07:25:08.434Z,29.92
2019-01-26T07:25:46.504Z,31.05
2019-01-26T07:26:24.609Z,31.15
2019-01-26T07:27:02.106Z,29.12
2019-01-26T07:27:39.564Z,29.45
2019-01-26T07:28:17.125Z,30.08
2019-01-26T07:28:55.097Z,30.15
2019-01-26T07:29:32.202Z,29.27
2019-01-26T07:30:12.244Z,29.55
2019-01-26T07:30:50.123Z,27.20
2019-01-26T07:31:28.137Z,30.27
2019-01-26T07:32:06.114Z,29.80
2019-01-26T07:32:43.263Z,29.70
2019-01-26T07:33:21.370Z,28.87
2019-01-26T07:33:58.679Z,28.50
2019-01-26T07:34:36.772Z,28.98
2019-01-26T07:35:14.265Z,30.20
2019-01-26T07:35:51.796Z,30.60
2019-01-26T07:36:29.746Z,27.50
2019-01-26T07:37:09.758Z,32.00
2019-01-26T07:37:47.790Z,28.30
2019-01-26T07:38:25.816Z,27.95
2019-01-26T07:39:04.706Z,30.35
2019-01-26T07:39:42.081Z,28.85
2019-01-26T07:40:21.204Z,29.70
2019-01-26T07:40:58.709Z,29.00
2019-01-26T07:41:36.549Z,29.57
2019-01-26T07:42:14.200Z,29.37
2019-01-26T07:42:51.553Z,28.27
2019-01-26T07:43:29.168Z,29.52
2019-01-26T07:44:07.731Z,29.75
2019-01-26T07:44:45.206Z,29.07
2019-01-26T07:45:23.105Z,29.12
2019-01-26T07:46:00.471Z,29.10
2019-01-26T07:46:38.506Z,28.07
2019-01-26T07:47:16.156Z,29.57
2019-01-26T07:47:53.941Z,29.50
2019-01-26T07:48:31.727Z,30.35
2019-01-26T07:49:09.528Z,30.35
2019-01-26T07:49:51.180Z,29.25
2019-01-26T07:50:28.739Z,29.18
2019-01-26T07:51:09.137Z,30.43
2019-01-26T07:51:47.202Z,28.83
2019-01-26T07:52:25.325Z,28.00
2019-01-26T07:53:02.760Z,28.70
2019-01-26T07:53:43.541Z,29.32
2019-01-26T07:54:21.227Z,29.20
2019-01-26T07:54:58.685Z,27.22
2019-01-26T07:55:36.686Z,29.12
2019-01-26T07:56:14.158Z,29.45
2019-01-26T07:56:51.512Z,30.82
2019-01-26T07:57:29.420Z,30.92
2019-01-26T07:58:07.113Z,30.00
2019-01-26T07:58:46.581Z,28.65
2019-01-26T07:59:24.418Z,28.77
2019-01-26T08:00:07.733Z,29.98
2019-01-26T08:00:45.517Z,29.50
2019-01-26T08:01:24.764Z,29.85
2019-01-26T08:02:02.204Z,28.45
2019-01-26T08:02:39.210Z,30.00
2019-01-26T08:03:16.992Z,32.42
2019-01-26T08:03:54.333Z,31.82
2019-01-26T08:04:34.227Z,30.05
2019-01-26T08:05:12.662Z,30.68
2019-01-26T08:05:51.476Z,30.45
2019-01-26T08:06:28.969Z,29.63
2019-01-26T08:07:06.395Z,29.70
2019-01-26T08:07:44.222Z,30.45
2019-01-26T08:08:22.204Z,32.93
2019-01-26T08:08:59.340Z,31.27
2019-01-26T08:09:37.069Z,29.07